createdAt,value
2019-03-20T00:02:13.185Z,100974.62
2019-03-20T00:04:49.230Z,100974.10
2019-03-20T00:07:11.591Z,100978.28
2019-03-20T00:09:39.829Z,100971.26
2019-03-20T00:12:08.067Z,100974.42
2019-03-20T00:14:36.297Z,100971.95
2019-03-20T00:17:04.539Z,100973.96
2019-03-20T00:19:32.782Z,100969.84
2019-03-20T00:22:01.019Z,100966.94
2019-03-20T00:24:29.251Z,100966.20
2019-03-20T00:26:57.489Z,100969.11
2019-03-20T00:29:26.007Z,100975.60
2019-03-20T00:31:54.240Z,100976.41
2019-03-20T00:34:22.485Z,100976.63
2019-03-20T00:36:50.715Z,100980.53
2019-03-20T00:39:18.971Z,100982.70
2019-03-20T00:41:47.234Z,100977.99
2019-03-20T00:44:15.441Z,100973.66
2019-03-20T00:46:43.674Z,100975.67
2019-03-20T00:49:11.922Z,100970.35
2019-03-20T00:51:40.151Z,100972.36
2019-03-20T00:54:08.620Z,100973.05
2019-03-20T00:56:36.845Z,100978.18
2019-03-20T00:59:05.095Z,100970.91
2019-03-20T01:01:33.324Z,100970.41
2019-03-20T01:04:01.566Z,100973.75
2019-03-20T01:06:29.813Z,100973.28
2019-03-20T01:08:58.041Z,100968.95
2019-03-20T01:11:26.283Z,100968.72
2019-03-20T01:13:54.521Z,100968.72
2019-03-20T01:16:22.768Z,100968.20
2019-03-20T01:18:51.221Z,100969.25
2019-03-20T01:21:19.467Z,100962.38
2019-03-20T01:23:47.703Z,100961.86
2019-03-20T01:26:15.942Z,100955.80
2019-03-20T01:28:44.402Z,100957.16
2019-03-20T01:31:12.881Z,100959.59
2019-03-20T01:33:41.341Z,100960.17
2019-03-20T01:36:09.580Z,100954.05
2019-03-20T01:38:37.811Z,100956.05
2019-03-20T01:41:06.287Z,100950.91
2019-03-20T01:43:34.522Z,100952.77
2019-03-20T01:46:02.980Z,100956.41
2019-03-20T01:48:31.214Z,100964.59
2019-03-20T01:51:14.907Z,100967.19
2019-03-20T01:53:43.368Z,100955.62
2019-03-20T01:56:11.599Z,100958.56
2019-03-20T01:58:39.842Z,100968.70
2019-03-20T02:01:08.071Z,100969.81
2019-03-20T02:03:36.308Z,100969.65
2019-03-20T02:06:04.580Z,100971.87
2019-03-20T02:08:32.823Z,100971.17
2019-03-20T02:11:01.059Z,100966.53
2019-03-20T02:16:03.204Z,100970.28
2019-03-20T02:18:31.445Z,100972.23
2019-03-20T02:20:59.921Z,100976.09
2019-03-20T02:23:28.174Z,100973.02
2019-03-20T02:25:56.420Z,100982.95
2019-03-20T02:28:24.929Z,100984.43
2019-03-20T02:30:53.171Z,100985.33
2019-03-20T02:33:21.647Z,100985.91
2019-03-20T02:35:51.774Z,100990.69
2019-03-20T02:38:20.309Z,100989.84
2019-03-20T02:40:48.557Z,100991.69
2019-03-20T02:43:16.799Z,100999.17
2019-03-20T02:45:45.274Z,100997.01
2019-03-20T02:48:13.526Z,100992.76
2019-03-20T02:50:42.011Z,100998.35
2019-03-20T02:53:10.225Z,100996.77
2019-03-20T02:55:38.468Z,100989.69
2019-03-20T02:58:06.702Z,100992.76
2019-03-20T03:00:34.943Z,100992.23
2019-03-20T03:03:03.185Z,100993.17
2019-03-20T03:05:31.426Z,100994.59
2019-03-20T03:07:59.659Z,100998.19
2019-03-20T03:10:28.133Z,100996.44
2019-03-20T03:12:56.372Z,101001.51
2019-03-20T03:15:24.631Z,100998.08
2019-03-20T03:17:52.875Z,101000.49
2019-03-20T03:20:21.106Z,101002.73
2019-03-20T03:22:49.357Z,101002.58
2019-03-20T03:25:17.838Z,101005.15
2019-03-20T03:27:46.300Z,101001.19
2019-03-20T03:30:17.863Z,101001.03
2019-03-20T03:32:46.370Z,101005.03
2019-03-20T03:35:18.249Z,101001.80
2019-03-20T03:37:45.045Z,100998.61
2019-03-20T03:40:18.346Z,101005.68
2019-03-20T03:42:47.006Z,101004.25
2019-03-20T03:45:16.149Z,101008.95
2019-03-20T03:47:44.441Z,101003.34
2019-03-20T03:50:13.001Z,101014.21
2019-03-20T03:52:41.307Z,101011.64
2019-03-20T03:55:11.414Z,101017.90
2019-03-20T03:57:40.210Z,101014.17
2019-03-20T04:00:13.917Z,101019.84
2019-03-20T04:02:42.159Z,101009.92
2019-03-20T04:05:10.400Z,101012.86
2019-03-20T04:07:38.873Z,101009.30
2019-03-20T04:10:13.356Z,101007.88
2019-03-20T04:12:41.671Z,101018.73
2019-03-20T04:15:13.078Z,101021.63
2019-03-20T04:17:41.390Z,101008.81
2019-03-20T04:20:12.673Z,101024.00
2019-03-20T04:22:41.038Z,101019.67
2019-03-20T04:25:10.470Z,101023.30
2019-03-20T04:27:38.706Z,101019.17
2019-03-20T04:30:09.786Z,101016.64
2019-03-20T04:32:38.019Z,101016.84
2019-03-20T04:35:06.607Z,101021.74
2019-03-20T04:37:34.848Z,101023.98
2019-03-20T04:40:03.605Z,101022.71
2019-03-20T04:42:31.842Z,101028.14
2019-03-20T04:45:00.313Z,101030.34
2019-03-20T04:47:28.510Z,101034.70
2019-03-20T04:49:56.756Z,101038.87
2019-03-20T04:52:25.224Z,101037.60
2019-03-20T04:54:53.473Z,101047.89
2019-03-20T04:57:21.711Z,101055.09
2019-03-20T04:59:49.960Z,101062.68
2019-03-20T05:02:18.200Z,101067.58
2019-03-20T05:04:46.454Z,101071.94
2019-03-20T05:07:14.707Z,101073.57
2019-03-20T05:09:43.204Z,101066.34
2019-03-20T05:12:11.445Z,101067.08
2019-03-20T05:14:39.693Z,101067.80
2019-03-20T05:17:07.931Z,101078.30
2019-03-20T05:19:36.176Z,101077.23
2019-03-20T05:22:04.428Z,101066.94
2019-03-20T05:24:32.660Z,101068.94
2019-03-20T05:27:01.136Z,101068.44
2019-03-20T05:29:29.598Z,101077.66
2019-03-20T05:31:57.862Z,101074.80
2019-03-20T05:34:26.340Z,101078.78
2019-03-20T05:36:54.613Z,101077.89
2019-03-20T05:39:22.855Z,101079.52
2019-03-20T05:41:51.108Z,101078.05
2019-03-20T05:44:19.341Z,101078.56
2019-03-20T05:46:47.588Z,101087.05
2019-03-20T05:49:15.828Z,101088.68
2019-03-20T05:51:44.078Z,101087.91
2019-03-20T05:54:12.317Z,101095.81
2019-03-20T05:56:40.570Z,101101.58
2019-03-20T05:59:09.039Z,101102.64
2019-03-20T06:01:37.511Z,101106.44
2019-03-20T06:04:05.758Z,101104.81
2019-03-20T06:06:34.251Z,101107.51
2019-03-20T06:09:02.490Z,101106.05
2019-03-20T06:11:30.964Z,101109.97
2019-03-20T06:13:59.206Z,101108.14
2019-03-20T06:16:27.677Z,101103.95
2019-03-20T06:18:55.927Z,101112.41
2019-03-20T06:21:24.170Z,101118.80
2019-03-20T06:23:52.408Z,101118.91
2019-03-20T06:26:20.882Z,101124.03
2019-03-20T06:28:49.116Z,101119.26
2019-03-20T06:31:18.837Z,101122.22
2019-03-20T06:33:47.407Z,101124.14
2019-03-20T06:36:15.646Z,101125.30
2019-03-20T06:38:43.884Z,101123.95
2019-03-20T06:41:12.360Z,101129.23
2019-03-20T06:43:40.599Z,101130.66
2019-03-20T06:46:08.831Z,101131.60
2019-03-20T06:48:37.076Z,101129.40
2019-03-20T06:51:05.319Z,101132.69
2019-03-20T06:53:33.560Z,101133.83
2019-03-20T06:56:01.792Z,101139.81
2019-03-20T06:58:30.038Z,101142.51
2019-03-20T07:01:10.577Z,101154.59
2019-03-20T07:03:47.949Z,101147.65
2019-03-20T07:06:21.973Z,101155.37
2019-03-20T07:09:02.575Z,101158.53
2019-03-20T07:11:33.613Z,101154.19
2019-03-20T07:14:01.850Z,101142.75
2019-03-20T07:16:30.088Z,101144.56
2019-03-20T07:18:58.326Z,101147.62
2019-03-20T07:21:26.561Z,101143.45
2019-03-20T07:23:54.796Z,101150.31
2019-03-20T07:26:23.042Z,101151.34
2019-03-20T07:28:51.512Z,101148.20
2019-03-20T07:31:19.764Z,101149.59
2019-03-20T07:33:48.063Z,101152.93
2019-03-20T07:36:16.246Z,101146.16
2019-03-20T07:38:44.490Z,101150.67
2019-03-20T07:41:12.970Z,101145.80
2019-03-20T07:43:41.212Z,101147.00
2019-03-20T07:46:09.455Z,101147.00
2019-03-20T07:48:37.691Z,101154.34
2019-03-20T07:51:05.936Z,101162.10
2019-03-20T07:53:34.177Z,101167.84
2019-03-20T07:56:02.436Z,101168.76
2019-03-20T07:58:30.676Z,101153.45
2019-03-20T08:00:58.924Z,101153.45
2019-03-20T08:03:27.170Z,101171.42
2019-03-20T08:05:54.022Z,101166.51
2019-03-20T08:08:22.260Z,101170.05
2019-03-20T08:10:51.077Z,101177.34
2019-03-20T08:13:19.607Z,101178.94
2019-03-20T08:15:47.845Z,101182.42
2019-03-20T08:18:16.078Z,101182.42
2019-03-20T08:20:44.325Z,101174.34
2019-03-20T08:23:12.764Z,101179.73
2019-03-20T08:25:41.228Z,101176.88
2019-03-20T08:28:09.477Z,101200.97
2019-03-20T08:30:37.777Z,101200.97
2019-03-20T08:33:06.246Z,101206.77
2019-03-20T08:35:34.706Z,101202.09
2019-03-20T08:38:03.173Z,101202.09
2019-03-20T08:40:31.630Z,101188.28
2019-03-20T08:42:59.867Z,101195.08
2019-03-20T08:45:28.100Z,101202.33
2019-03-20T08:47:56.340Z,101185.34
2019-03-20T08:50:25.736Z,101185.34
2019-03-20T08:52:54.205Z,101195.85
2019-03-20T08:55:22.909Z,101194.45
2019-03-20T08:57:51.540Z,101196.52
2019-03-20T09:00:24.563Z,101194.72
2019-03-20T09:02:52.996Z,101197.91
2019-03-20T09:05:21.221Z,101182.84
2019-03-20T09:07:49.464Z,101196.37
2019-03-20T09:10:27.329Z,101182.69
2019-03-20T09:12:55.571Z,101207.37
2019-03-20T09:15:24.024Z,101203.15
2019-03-20T09:17:52.272Z,101204.78
2019-03-20T09:20:23.871Z,101200.95
2019-03-20T09:22:52.123Z,101203.86
2019-03-20T09:25:21.286Z,101200.78
2019-03-20T09:27:49.540Z,101214.44
2019-03-20T09:30:20.522Z,101210.73
2019-03-20T09:32:48.928Z,101214.14
2019-03-20T09:35:17.175Z,101218.38
2019-03-20T09:37:51.730Z,101224.89
2019-03-20T09:40:17.048Z,101223.17
2019-03-20T09:42:45.509Z,101225.95
2019-03-20T09:45:16.247Z,101227.86
2019-03-20T09:47:44.552Z,101225.92
2019-03-20T09:50:18.004Z,101221.89
2019-03-20T09:52:46.457Z,101221.75
2019-03-20T09:55:15.771Z,101221.48
2019-03-20T09:57:44.004Z,101234.12
2019-03-20T10:00:18.061Z,101229.60
2019-03-20T10:02:46.588Z,101225.53
2019-03-20T10:05:14.858Z,101227.95
2019-03-20T10:07:43.360Z,101230.47
2019-03-20T10:10:22.461Z,101230.09
2019-03-20T10:12:50.693Z,101232.63
2019-03-20T10:15:20.177Z,101227.80
2019-03-20T10:17:48.408Z,101228.27
2019-03-20T10:20:19.013Z,101226.42
2019-03-20T10:22:47.309Z,101222.92
2019-03-20T10:25:16.289Z,101225.90
2019-03-20T10:27:44.592Z,101226.03
2019-03-20T10:30:15.690Z,101220.98
2019-03-20T10:32:44.215Z,101221.76
2019-03-20T10:35:12.524Z,101220.28
2019-03-20T10:37:40.756Z,101221.67
2019-03-20T10:40:22.654Z,101222.72
2019-03-20T10:42:51.122Z,101218.27
2019-03-20T10:45:20.956Z,101216.61
2019-03-20T10:47:52.676Z,101215.55
2019-03-20T10:50:21.574Z,101214.41
2019-03-20T10:52:50.137Z,101211.11
2019-03-20T10:55:18.652Z,101205.71
2019-03-20T10:57:47.058Z,101206.77
2019-03-20T11:00:17.170Z,101201.58
2019-03-20T11:02:45.409Z,101193.42
2019-03-20T11:05:14.089Z,101192.53
2019-03-20T11:07:42.558Z,101188.50
2019-03-20T11:10:16.177Z,101191.80
2019-03-20T11:12:44.635Z,101187.36
2019-03-20T11:15:15.053Z,101190.08
2019-03-20T11:17:43.291Z,101187.60
2019-03-20T11:20:14.075Z,101185.45
2019-03-20T11:22:42.748Z,101187.34
2019-03-20T11:25:13.334Z,101185.86
2019-03-20T11:27:41.598Z,101182.61
2019-03-20T11:30:18.480Z,101188.06
2019-03-20T11:32:46.714Z,101179.54
2019-03-20T11:35:14.969Z,101177.84
2019-03-20T11:37:43.210Z,101179.72
2019-03-20T11:40:16.949Z,101174.19
2019-03-20T11:42:45.424Z,101174.85
2019-03-20T11:45:13.661Z,101170.60
2019-03-20T11:50:32.645Z,101165.59
2019-03-20T11:53:01.249Z,101167.38
2019-03-20T11:55:29.918Z,101165.28
2019-03-20T11:57:58.823Z,101153.88
2019-03-20T12:00:27.063Z,101149.91
2019-03-20T12:02:55.308Z,101150.80
2019-03-20T12:05:23.771Z,101146.63
2019-03-20T12:07:52.239Z,101148.51
2019-03-20T12:10:22.979Z,101138.87
2019-03-20T12:12:51.398Z,101137.78
2019-03-20T12:15:19.633Z,101135.36
2019-03-20T12:17:47.922Z,101130.69
2019-03-20T12:20:19.336Z,101129.59
2019-03-20T12:22:48.626Z,101124.92
2019-03-20T12:25:19.567Z,101130.88
2019-03-20T12:27:47.817Z,101123.73
2019-03-20T12:30:18.909Z,101129.09
2019-03-20T12:32:47.382Z,101128.05
2019-03-20T12:35:17.279Z,101135.47
2019-03-20T12:37:45.532Z,101131.95
2019-03-20T12:40:19.225Z,101136.01
2019-03-20T12:42:47.475Z,101127.23
2019-03-20T12:45:21.981Z,101134.03
2019-03-20T12:47:50.464Z,101129.88
2019-03-20T12:50:18.922Z,101122.38
2019-03-20T12:52:47.168Z,101120.44
2019-03-20T12:55:17.168Z,101121.02
2019-03-20T12:57:45.421Z,101124.38
2019-03-20T13:00:21.689Z,101121.30
2019-03-20T13:02:50.542Z,101104.70
2019-03-20T13:05:19.305Z,101117.34
2019-03-20T13:07:47.537Z,101120.11
2019-03-20T13:10:26.239Z,101113.83
2019-03-20T13:12:54.713Z,101111.49
2019-03-20T13:15:26.749Z,101103.91
2019-03-20T13:17:56.149Z,101111.86
2019-03-20T13:20:24.562Z,101106.88
2019-03-20T13:22:58.492Z,101106.73
2019-03-20T13:25:26.733Z,101105.63
2019-03-20T13:27:54.965Z,101104.11
2019-03-20T13:30:29.245Z,101104.70
2019-03-20T13:32:57.776Z,101096.08
2019-03-20T13:35:26.254Z,101095.45
2019-03-20T13:37:54.515Z,101093.23
2019-03-20T13:40:22.763Z,101099.30
2019-03-20T13:42:51.037Z,101084.36
2019-03-20T13:45:22.113Z,101090.42
2019-03-20T13:47:50.579Z,101091.00
2019-03-20T13:50:18.889Z,101078.35
2019-03-20T13:52:47.125Z,101077.33
2019-03-20T13:55:16.336Z,101081.84
2019-03-20T13:57:44.736Z,101085.19
2019-03-20T14:00:18.104Z,101075.84
2019-03-20T14:02:46.636Z,101081.27
2019-03-20T14:05:14.949Z,101083.23
2019-03-20T14:07:43.186Z,101084.96
2019-03-20T14:10:24.311Z,101082.33
2019-03-20T14:12:44.049Z,101082.13
2019-03-20T14:15:13.862Z,101084.56
2019-03-20T14:17:42.166Z,101076.15
2019-03-20T14:20:18.405Z,101076.79
2019-03-20T14:22:46.637Z,101075.34
2019-03-20T14:25:15.280Z,101072.89
2019-03-20T14:27:43.513Z,101072.14
2019-03-20T14:30:14.796Z,101068.16
2019-03-20T14:32:43.257Z,101067.14
2019-03-20T14:35:11.506Z,101065.75
2019-03-20T14:37:39.965Z,101066.86
2019-03-20T14:40:13.901Z,101065.95
2019-03-20T14:42:42.373Z,101072.16
2019-03-20T14:45:12.776Z,101072.00
2019-03-20T14:47:42.272Z,101069.72
2019-03-20T14:50:14.245Z,101068.61
2019-03-20T14:52:42.714Z,101063.45
2019-03-20T14:55:12.714Z,101067.94
2019-03-20T14:57:40.964Z,101075.77
2019-03-20T15:00:17.883Z,101062.38
2019-03-20T15:02:46.363Z,101087.55
2019-03-20T15:05:14.889Z,101098.22
2019-03-20T15:07:43.134Z,101086.74
2019-03-20T15:10:16.529Z,101085.11
2019-03-20T15:12:45.069Z,101075.88
2019-03-20T15:15:36.925Z,101076.00
2019-03-20T15:18:06.209Z,101069.91
2019-03-20T15:20:34.741Z,101069.98
2019-03-20T15:23:02.983Z,101068.76
2019-03-20T15:25:31.445Z,101068.49
2019-03-20T15:27:59.689Z,101071.30
2019-03-20T15:30:29.724Z,101065.40
2019-03-20T15:32:58.045Z,101074.41
2019-03-20T15:35:26.282Z,101070.53
2019-03-20T15:37:54.750Z,101073.06
2019-03-20T15:40:24.149Z,101068.30
2019-03-20T15:42:52.621Z,101070.61
2019-03-20T15:45:20.854Z,101064.28
2019-03-20T15:47:49.102Z,101065.59
2019-03-20T15:50:29.427Z,101062.31
2019-03-20T15:52:57.896Z,101056.56
2019-03-20T15:55:36.606Z,101063.13
2019-03-20T15:58:05.069Z,101061.94
2019-03-20T16:00:33.532Z,101063.95
2019-03-20T16:03:10.985Z,101060.73
2019-03-20T16:05:39.445Z,101055.67
2019-03-20T16:08:07.699Z,101054.47
2019-03-20T16:10:35.999Z,101057.09
2019-03-20T16:13:04.655Z,101053.20
2019-03-20T16:15:32.889Z,101050.14
2019-03-20T16:18:01.126Z,101055.96
2019-03-20T16:20:29.595Z,101056.78
2019-03-20T16:22:58.063Z,101058.15
2019-03-20T16:25:26.529Z,101048.91
2019-03-20T16:27:54.993Z,101053.25
2019-03-20T16:30:33.625Z,101061.63
2019-03-20T16:33:01.867Z,101063.42
2019-03-20T16:35:30.339Z,101056.59
2019-03-20T16:37:58.806Z,101051.41
2019-03-20T16:40:34.258Z,101056.55
2019-03-20T16:43:02.493Z,101057.50
2019-03-20T16:45:37.590Z,101052.88
2019-03-20T16:48:06.389Z,101058.94
2019-03-20T16:50:34.635Z,101057.09
2019-03-20T16:53:02.869Z,101055.72
2019-03-20T16:55:31.115Z,101062.87
2019-03-20T16:57:59.365Z,101065.89
2019-03-20T17:00:34.022Z,101058.42
2019-03-20T17:03:02.265Z,101055.88
2019-03-20T17:05:31.375Z,101054.25
2019-03-20T17:07:59.614Z,101057.16
2019-03-20T17:10:41.684Z,101060.33
2019-03-20T17:13:09.918Z,101060.69
2019-03-20T17:15:42.559Z,101061.71
2019-03-20T17:18:10.797Z,101067.72
2019-03-20T17:20:39.040Z,101067.35
2019-03-20T17:23:07.904Z,101073.22
2019-03-20T17:25:36.272Z,101084.17
2019-03-20T17:28:05.149Z,101070.53
2019-03-20T17:30:39.360Z,101069.38
2019-03-20T17:33:07.847Z,101071.27
2019-03-20T17:35:36.082Z,101066.23
2019-03-20T17:38:04.766Z,101065.56
2019-03-20T17:40:33.010Z,101070.83
2019-03-20T17:43:01.321Z,101073.29
2019-03-20T17:45:29.902Z,101076.97
2019-03-20T17:47:58.216Z,101083.28
2019-03-20T17:50:30.693Z,101085.77
2019-03-20T17:52:59.171Z,101093.78
2019-03-20T17:55:27.408Z,101096.22
2019-03-20T17:57:55.675Z,101098.41
2019-03-20T18:00:30.007Z,101105.92
2019-03-20T18:02:58.246Z,101104.31
2019-03-20T18:05:26.524Z,101107.00
2019-03-20T18:07:54.732Z,101108.61
2019-03-20T18:10:22.980Z,101111.86
2019-03-20T18:12:51.218Z,101118.14
2019-03-20T18:15:19.870Z,101119.03
2019-03-20T18:17:48.344Z,101121.73
2019-03-20T18:20:18.794Z,101116.75
2019-03-20T18:22:47.032Z,101120.27
2019-03-20T18:25:15.582Z,101118.03
2019-03-20T18:27:43.822Z,101118.18
2019-03-20T18:30:21.091Z,101124.94
2019-03-20T18:32:49.837Z,101131.45
2019-03-20T18:35:18.250Z,101136.42
2019-03-20T18:37:46.656Z,101132.30
2019-03-20T18:40:17.530Z,101136.76
2019-03-20T18:42:45.839Z,101138.67
2019-03-20T18:45:21.865Z,101149.96
2019-03-20T18:47:50.330Z,101143.23
2019-03-20T18:50:19.438Z,101148.33
2019-03-20T18:52:48.155Z,101146.73
2019-03-20T18:55:17.430Z,101153.48
2019-03-20T18:57:45.912Z,101147.44
2019-03-20T19:00:27.538Z,101142.58
2019-03-20T19:03:04.815Z,101138.61
2019-03-20T19:05:36.467Z,101138.67
2019-03-20T19:08:04.949Z,101149.23
2019-03-20T19:10:33.185Z,101143.74
2019-03-20T19:13:01.659Z,101146.25
2019-03-20T19:15:29.916Z,101144.99
2019-03-20T19:17:58.134Z,101150.39
2019-03-20T19:20:26.370Z,101148.36
2019-03-20T19:22:54.847Z,101154.31
2019-03-20T19:25:23.085Z,101148.96
2019-03-20T19:27:51.329Z,101150.44
2019-03-20T19:30:24.658Z,101156.23
2019-03-20T19:32:53.210Z,101159.11
2019-03-20T19:35:21.678Z,101158.87
2019-03-20T19:37:50.163Z,101156.11
2019-03-20T19:40:19.626Z,101162.52
2019-03-20T19:42:47.866Z,101165.73
2019-03-20T19:45:16.840Z,101175.52
2019-03-20T19:47:45.375Z,101171.16
2019-03-20T19:50:15.290Z,101176.03
2019-03-20T19:52:43.685Z,101177.35
2019-03-20T19:55:15.966Z,101174.03
2019-03-20T19:57:44.502Z,101177.36
2019-03-20T20:00:19.203Z,101171.34
2019-03-20T20:02:47.438Z,101177.91
2019-03-20T20:05:16.412Z,101175.86
2019-03-20T20:07:44.759Z,101175.09
2019-03-20T20:10:16.747Z,101180.62
2019-03-20T20:12:44.980Z,101177.68
2019-03-20T20:15:15.686Z,101178.58
2019-03-20T20:17:44.173Z,101177.80
2019-03-20T20:20:18.940Z,101183.84
2019-03-20T20:22:47.191Z,101182.30
2019-03-20T20:25:15.428Z,101191.03
2019-03-20T20:27:43.662Z,101190.25
2019-03-20T20:30:19.029Z,101187.56
2019-03-20T20:32:47.249Z,101187.43
2019-03-20T20:35:16.532Z,101189.98
2019-03-20T20:37:45.716Z,101191.41
2019-03-20T20:40:18.724Z,101192.68
2019-03-20T20:42:47.190Z,101189.09
2019-03-20T20:45:15.503Z,101188.20
2019-03-20T20:47:43.741Z,101197.78
2019-03-20T20:50:13.720Z,101206.98
2019-03-20T20:52:42.266Z,101199.33
2019-03-20T20:55:13.444Z,101197.53
2019-03-20T20:57:41.698Z,101204.17
2019-03-20T21:00:16.083Z,101196.89
2019-03-20T21:02:44.332Z,101190.88
2019-03-20T21:05:12.635Z,101187.04
2019-03-20T21:07:40.895Z,101188.56
2019-03-20T21:10:12.526Z,101192.52
2019-03-20T21:12:42.715Z,101187.04
2019-03-20T21:15:19.552Z,101190.61
2019-03-20T21:17:53.787Z,101191.11
2019-03-20T21:20:22.027Z,101198.50
2019-03-20T21:23:26.437Z,101205.01
2019-03-20T21:25:56.054Z,101201.84
2019-03-20T21:28:46.768Z,101200.56
2019-03-20T21:31:16.180Z,101190.95
2019-03-20T21:34:08.573Z,101187.62
2019-03-20T21:36:54.682Z,101196.06
2019-03-20T21:39:22.927Z,101196.20
2019-03-20T21:42:18.388Z,101193.08
2019-03-20T21:45:24.089Z,101204.45
2019-03-20T21:47:52.331Z,101203.93
2019-03-20T21:50:40.001Z,101202.38
2019-03-20T21:53:11.775Z,101202.14
2019-03-20T21:56:16.527Z,101208.77
2019-03-20T21:58:51.043Z,101211.95
2019-03-20T22:01:41.846Z,101214.23
2019-03-20T22:04:10.105Z,101210.65
2019-03-20T22:07:01.168Z,101204.02
2019-03-20T22:09:53.687Z,101206.71
2019-03-20T22:12:34.046Z,101212.20
2019-03-20T22:15:13.971Z,101202.84
2019-03-20T22:18:04.690Z,101208.23
2019-03-20T22:20:36.328Z,101215.24
2019-03-20T22:23:33.261Z,101213.20
2019-03-20T22:26:26.759Z,101212.94
2019-03-20T22:29:14.227Z,101212.91
2019-03-20T22:31:48.526Z,101204.45
2019-03-20T22:34:36.496Z,101209.31
2019-03-20T22:37:04.730Z,101201.30
2019-03-20T22:39:59.051Z,101196.84
2019-03-20T22:42:39.686Z,101197.88
2019-03-20T22:45:22.953Z,101193.02
2019-03-20T22:47:56.812Z,101197.88
2019-03-20T22:50:44.302Z,101193.53
2019-03-20T22:53:24.356Z,101198.78
2019-03-20T22:56:19.722Z,101192.09
2019-03-20T22:58:47.973Z,101197.69
2019-03-20T23:01:19.777Z,101200.55
2019-03-20T23:03:54.129Z,101195.45
2019-03-20T23:06:22.372Z,101196.34
2019-03-20T23:08:50.621Z,101190.27
2019-03-20T23:11:19.078Z,101196.03
2019-03-20T23:13:47.314Z,101192.58
2019-03-20T23:16:18.734Z,101196.41
2019-03-20T23:18:46.969Z,101193.85
2019-03-20T23:21:15.231Z,101198.82
2019-03-20T23:23:43.490Z,101197.92
2019-03-20T23:26:11.738Z,101198.16
2019-03-20T23:28:40.958Z,101193.44
2019-03-20T23:31:09.434Z,101189.98
2019-03-20T23:33:37.898Z,101192.92
2019-03-20T23:36:06.218Z,101191.88
2019-03-20T23:38:34.468Z,101192.13
2019-03-20T23:41:02.711Z,101172.80
2019-03-20T23:43:30.949Z,101192.21
2019-03-20T23:45:59.439Z,101199.87
2019-03-20T23:48:33.975Z,101158.25
2019-03-20T23:51:08.259Z,101158.25
2019-03-20T23:53:36.876Z,101199.53
2019-03-20T23:56:05.084Z,101199.53
2019-03-20T23:58:33.560Z,101179.31
